createdAt,value
2022-11-26T00:00:02.730Z,71.57
2022-11-26T00:01:02.657Z,71.64
2022-11-26T00:02:02.742Z,71.70
2022-11-26T00:03:09.309Z,71.70
2022-11-26T00:04:02.621Z,71.57
2022-11-26T00:05:02.597Z,71.39
2022-11-26T00:06:02.615Z,71.82
2022-11-26T00:07:02.574Z,72.20
2022-11-26T00:08:02.615Z,71.76
2022-11-26T00:09:02.557Z,71.82
2022-11-26T00:10:02.541Z,72.20
2022-11-26T00:11:02.525Z,72.89
2022-11-26T00:12:02.506Z,72.83
2022-11-26T00:13:02.516Z,72.70
2022-11-26T00:14:02.491Z,72.70
2022-11-26T00:15:02.471Z,73.08
2022-11-26T00:16:02.471Z,73.15
2022-11-26T00:17:02.494Z,73.08
2022-11-26T00:18:02.493Z,73.34
2022-11-26T00:19:02.413Z,73.15
2022-11-26T00:20:02.402Z,73.21
2022-11-26T00:21:02.385Z,73.73
2022-11-26T00:22:02.376Z,73.15
2022-11-26T00:23:02.384Z,73.21
2022-11-26T00:24:02.353Z,72.83
2022-11-26T00:25:02.337Z,72.39
2022-11-26T00:26:02.320Z,72.51
2022-11-26T00:27:02.336Z,72.39
2022-11-26T00:28:02.310Z,72.26
2022-11-26T00:29:02.339Z,72.20
2022-11-26T00:30:02.309Z,72.39
2022-11-26T00:31:02.254Z,72.57
2022-11-26T00:32:02.306Z,73.34
2022-11-26T00:33:02.248Z,74.06
2022-11-26T00:34:02.226Z,74.33
2022-11-26T00:35:02.251Z,74.39
2022-11-26T00:36:02.192Z,74.86
2022-11-26T00:37:02.172Z,74.59
2022-11-26T00:38:02.202Z,74.33
2022-11-26T00:39:02.184Z,74.26
2022-11-26T00:40:02.142Z,74.19
2022-11-26T00:41:02.120Z,73.93
2022-11-26T00:42:02.117Z,73.86
2022-11-26T00:43:02.273Z,73.80
2022-11-26T00:44:02.082Z,73.60
2022-11-26T00:45:02.073Z,73.86
2022-11-26T00:46:02.160Z,73.86
2022-11-26T00:47:02.044Z,74.46
2022-11-26T00:48:02.054Z,74.59
2022-11-26T00:49:02.019Z,74.73
2022-11-26T00:50:02.001Z,74.86
2022-11-26T00:51:01.992Z,74.86
2022-11-26T00:52:01.987Z,75.00
2022-11-26T00:53:01.969Z,74.73
2022-11-26T00:54:02.014Z,74.73
2022-11-26T00:55:01.942Z,75.20
2022-11-26T00:56:01.936Z,75.07
2022-11-26T00:57:01.921Z,74.86
2022-11-26T00:58:01.902Z,75.00
2022-11-26T00:59:01.903Z,75.13
2022-11-26T01:00:01.876Z,75.20
2022-11-26T01:01:01.889Z,75.61
2022-11-26T01:02:01.899Z,75.47
2022-11-26T01:03:01.832Z,75.54
2022-11-26T01:04:01.878Z,75.82
2022-11-26T01:05:01.811Z,75.68
2022-11-26T01:06:01.811Z,75.68
2022-11-26T01:07:01.784Z,75.34
2022-11-26T01:08:01.807Z,75.82
2022-11-26T01:09:01.785Z,75.41
2022-11-26T01:10:01.750Z,75.47
2022-11-26T01:11:01.828Z,75.68
2022-11-26T01:12:01.724Z,76.24
2022-11-26T01:13:01.720Z,76.10
2022-11-26T01:14:01.705Z,76.31
2022-11-26T01:15:01.681Z,76.24
2022-11-26T01:16:01.832Z,76.38
2022-11-26T01:17:01.684Z,76.66
2022-11-26T01:18:01.666Z,76.38
2022-11-26T01:19:01.644Z,76.52
2022-11-26T01:20:01.621Z,76.73
2022-11-26T01:21:01.623Z,76.80
2022-11-26T01:22:01.591Z,76.52
2022-11-26T01:23:01.576Z,76.94
2022-11-26T01:24:01.585Z,76.87
2022-11-26T01:25:01.616Z,77.08
2022-11-26T01:26:06.283Z,77.16
2022-11-26T01:27:01.531Z,77.37
2022-11-26T01:28:01.511Z,76.87
2022-11-26T01:29:01.505Z,77.23
2022-11-26T01:30:01.512Z,77.23
2022-11-26T01:31:01.500Z,77.44
2022-11-26T01:32:01.572Z,77.44
2022-11-26T01:33:01.501Z,77.37
2022-11-26T01:34:01.454Z,77.23
2022-11-26T01:35:01.418Z,77.37
2022-11-26T01:36:01.424Z,77.01
2022-11-26T01:37:01.393Z,77.30
2022-11-26T01:38:01.383Z,77.73
2022-11-26T01:39:01.372Z,77.44
2022-11-26T01:40:01.382Z,77.88
2022-11-26T01:41:01.369Z,77.81
2022-11-26T01:42:01.333Z,77.95
2022-11-26T01:43:01.316Z,78.10
2022-11-26T01:44:01.308Z,77.81
2022-11-26T01:45:01.287Z,77.81
2022-11-26T01:46:01.403Z,78.32
2022-11-26T01:47:01.263Z,77.81
2022-11-26T01:48:01.263Z,77.81
2022-11-26T01:49:01.239Z,77.73
2022-11-26T01:50:01.225Z,77.66
2022-11-26T01:51:01.222Z,78.39
2022-11-26T01:52:01.209Z,78.61
2022-11-26T01:53:01.202Z,78.84
2022-11-26T01:54:01.175Z,78.47
2022-11-26T01:55:01.159Z,78.17
2022-11-26T01:56:01.200Z,78.10
2022-11-26T01:57:01.133Z,77.81
2022-11-26T01:58:01.128Z,77.95
2022-11-26T01:59:01.139Z,78.17
2022-11-26T02:00:01.116Z,78.32
2022-11-26T02:01:01.130Z,77.95
2022-11-26T02:02:01.215Z,77.95
2022-11-26T02:03:01.106Z,78.47
2022-11-26T02:04:01.111Z,78.84
2022-11-26T02:05:01.032Z,78.54
2022-11-26T02:06:01.027Z,79.14
2022-11-26T02:07:01.002Z,79.06
2022-11-26T02:08:00.995Z,79.29
2022-11-26T02:09:00.972Z,79.52
2022-11-26T02:10:00.972Z,79.90
2022-11-26T02:11:00.945Z,79.44
2022-11-26T02:12:00.950Z,79.75
2022-11-26T02:13:00.920Z,80.52
2022-11-26T02:14:00.910Z,80.99
2022-11-26T02:15:00.926Z,81.31
2022-11-26T02:16:00.932Z,81.07
2022-11-26T02:17:00.876Z,81.23
2022-11-26T02:18:00.853Z,80.99
2022-11-26T02:19:00.846Z,81.31
2022-11-26T02:20:00.865Z,81.71
2022-11-26T02:21:00.830Z,81.39
2022-11-26T02:22:00.813Z,81.79
2022-11-26T02:23:00.793Z,81.47
2022-11-26T02:24:00.775Z,81.71
2022-11-26T02:25:00.778Z,81.87
2022-11-26T02:26:00.755Z,82.85
2022-11-26T02:27:00.791Z,82.93
2022-11-26T02:28:00.748Z,82.68
2022-11-26T02:29:00.720Z,82.60
2022-11-26T02:30:00.797Z,83.10
2022-11-26T02:31:00.692Z,83.10
2022-11-26T02:32:00.742Z,83.76
2022-11-26T02:33:00.659Z,82.93
2022-11-26T02:34:00.654Z,83.10
2022-11-26T02:35:00.714Z,83.01
2022-11-26T02:36:00.620Z,84.27
2022-11-26T02:37:00.613Z,84.44
2022-11-26T02:38:00.619Z,84.44
2022-11-26T02:39:00.614Z,84.44
2022-11-26T02:40:00.574Z,84.44
2022-11-26T02:41:00.591Z,85.14
2022-11-26T02:42:00.534Z,86.20
2022-11-26T02:43:00.534Z,87.10
2022-11-26T02:44:00.526Z,88.40
2022-11-26T02:45:00.503Z,89.54
2022-11-26T02:46:00.542Z,92.02
2022-11-26T02:47:00.472Z,94.10
2022-11-26T02:48:00.489Z,93.89
2022-11-26T02:49:00.501Z,93.99
2022-11-26T02:50:00.479Z,93.26
2022-11-26T02:51:00.432Z,92.32
2022-11-26T02:52:00.415Z,90.81
2022-11-26T02:53:00.396Z,89.44
2022-11-26T02:54:00.387Z,88.68
2022-11-26T02:55:00.374Z,87.65
2022-11-26T02:56:00.380Z,86.65
2022-11-26T02:57:00.349Z,85.49
2022-11-26T02:58:00.330Z,85.05
2022-11-26T02:59:00.321Z,84.70
2022-11-26T03:00:00.305Z,84.79
2022-11-26T03:01:00.345Z,84.10
2022-11-26T03:02:00.273Z,83.60
2022-11-26T03:03:00.318Z,83.26
2022-11-26T03:04:00.339Z,83.60
2022-11-26T03:05:00.252Z,83.18
2022-11-26T03:06:00.260Z,83.26
2022-11-26T03:07:00.212Z,84.79
2022-11-26T03:08:00.200Z,85.93
2022-11-26T03:09:00.193Z,86.02
2022-11-26T03:10:00.173Z,87.19
2022-11-26T03:11:00.187Z,86.92
2022-11-26T03:12:00.299Z,87.28
2022-11-26T03:13:00.136Z,86.92
2022-11-26T03:14:00.141Z,86.92
2022-11-26T03:15:00.161Z,86.38
2022-11-26T03:16:00.204Z,86.47
2022-11-26T03:17:00.093Z,85.66
2022-11-26T03:18:00.065Z,85.31
2022-11-26T03:19:00.082Z,84.96
2022-11-26T03:20:00.036Z,85.31
2022-11-26T03:21:00.037Z,84.96
2022-11-26T03:22:00.008Z,84.88
2022-11-26T03:23:00.056Z,84.70
2022-11-26T03:23:59.981Z,84.88
2022-11-26T03:24:59.971Z,84.96
2022-11-26T03:25:59.954Z,86.20
2022-11-26T03:26:59.952Z,86.29
2022-11-26T03:27:59.933Z,86.20
2022-11-26T03:28:59.969Z,86.83
2022-11-26T03:29:59.905Z,86.74
2022-11-26T03:30:59.906Z,87.01
2022-11-26T03:31:59.990Z,86.74
2022-11-26T03:32:59.864Z,85.75
2022-11-26T03:33:59.857Z,85.14
2022-11-26T03:34:59.840Z,84.70
2022-11-26T03:35:59.826Z,84.27
2022-11-26T03:36:59.816Z,83.18
2022-11-26T03:37:59.799Z,83.43
2022-11-26T03:38:59.817Z,83.43
2022-11-26T03:39:59.770Z,85.22
2022-11-26T03:40:59.783Z,85.49
2022-11-26T03:41:59.821Z,86.02
2022-11-26T03:42:59.732Z,85.57
2022-11-26T03:43:59.729Z,86.02
2022-11-26T03:44:59.709Z,85.40
2022-11-26T03:45:59.741Z,85.84
2022-11-26T03:46:59.679Z,85.93
2022-11-26T03:47:59.697Z,86.11
2022-11-26T03:48:59.659Z,86.02
2022-11-26T03:49:59.669Z,85.05
2022-11-26T03:50:59.632Z,85.14
2022-11-26T03:51:59.623Z,84.27
2022-11-26T03:52:59.628Z,84.10
2022-11-26T03:53:59.591Z,83.76
2022-11-26T03:54:59.589Z,84.10
2022-11-26T03:55:59.583Z,83.60
2022-11-26T03:56:59.559Z,83.10
2022-11-26T03:57:59.541Z,83.01
2022-11-26T03:58:59.542Z,83.26
2022-11-26T03:59:59.509Z,83.43
2022-11-26T04:00:59.618Z,83.18
2022-11-26T04:01:59.498Z,82.68
2022-11-26T04:02:59.566Z,82.43
2022-11-26T04:03:59.460Z,81.79
2022-11-26T04:04:59.444Z,81.31
2022-11-26T04:05:59.466Z,81.07
2022-11-26T04:06:59.457Z,80.60
2022-11-26T04:07:59.424Z,80.36
2022-11-26T04:08:59.395Z,80.29
2022-11-26T04:09:59.444Z,79.98
2022-11-26T04:10:59.382Z,79.75
2022-11-26T04:11:59.354Z,79.21
2022-11-26T04:12:59.396Z,78.84
2022-11-26T04:13:59.346Z,78.39
2022-11-26T04:14:59.313Z,78.10
2022-11-26T04:15:59.308Z,78.03
2022-11-26T04:16:59.317Z,77.51
2022-11-26T04:17:59.288Z,76.87
2022-11-26T04:18:59.261Z,76.66
2022-11-26T04:19:59.264Z,77.30
2022-11-26T04:20:59.230Z,77.66
2022-11-26T04:21:59.234Z,78.47
2022-11-26T04:22:59.215Z,78.47
2022-11-26T04:23:59.208Z,77.66
2022-11-26T04:24:59.186Z,77.95
2022-11-26T04:25:59.171Z,77.44
2022-11-26T04:26:59.204Z,77.95
2022-11-26T04:27:59.143Z,77.44
2022-11-26T04:28:59.126Z,77.51
2022-11-26T04:29:59.136Z,77.81
2022-11-26T04:30:59.126Z,77.51
2022-11-26T04:31:59.165Z,77.51
2022-11-26T04:32:59.109Z,76.59
2022-11-26T04:33:59.060Z,76.59
2022-11-26T04:34:59.082Z,77.16
2022-11-26T04:35:59.124Z,76.94
2022-11-26T04:36:59.025Z,77.73
2022-11-26T04:37:59.009Z,77.73
2022-11-26T04:38:58.997Z,77.66
2022-11-26T04:39:59.069Z,77.88
2022-11-26T04:40:59.001Z,77.66
2022-11-26T04:41:58.981Z,78.03
2022-11-26T04:42:59.017Z,78.32
2022-11-26T04:43:58.960Z,78.39
2022-11-26T04:44:58.927Z,77.81
2022-11-26T04:45:58.982Z,77.44
2022-11-26T04:46:58.894Z,76.80
2022-11-26T04:47:58.879Z,76.31
2022-11-26T04:48:58.946Z,76.03
2022-11-26T04:49:58.927Z,75.75
2022-11-26T04:50:58.847Z,75.82
2022-11-26T04:51:58.842Z,76.03
2022-11-26T04:52:58.820Z,75.27
2022-11-26T04:54:02.722Z,75.27
2022-11-26T04:54:58.807Z,75.75
2022-11-26T04:55:58.849Z,75.47
2022-11-26T04:56:58.762Z,75.82
2022-11-26T04:57:58.746Z,76.03
2022-11-26T04:58:58.734Z,75.75
2022-11-26T04:59:58.788Z,75.34
2022-11-26T05:00:58.780Z,75.47
2022-11-26T05:01:58.701Z,75.20
2022-11-26T05:02:58.705Z,75.61
2022-11-26T05:03:58.700Z,75.00
2022-11-26T05:04:58.696Z,75.20
2022-11-26T05:05:58.696Z,74.73
2022-11-26T05:06:58.690Z,74.73
2022-11-26T05:07:58.665Z,75.00
2022-11-26T05:08:58.650Z,74.86
2022-11-26T05:09:58.595Z,75.47
2022-11-26T05:10:58.638Z,74.86
2022-11-26T05:11:58.568Z,74.86
2022-11-26T05:12:58.560Z,75.07
2022-11-26T05:13:58.542Z,74.86
2022-11-26T05:14:58.542Z,75.13
2022-11-26T05:15:58.516Z,75.34
2022-11-26T05:16:58.600Z,74.39
2022-11-26T05:17:58.542Z,74.59
2022-11-26T05:18:58.474Z,74.53
2022-11-26T05:19:58.487Z,74.93
2022-11-26T05:20:58.451Z,74.93
2022-11-26T05:21:58.442Z,74.86
2022-11-26T05:22:58.423Z,74.66
2022-11-26T05:23:58.420Z,75.13
2022-11-26T05:24:58.398Z,75.82
2022-11-26T05:25:58.390Z,76.17
2022-11-26T05:26:58.395Z,76.31
2022-11-26T05:27:58.363Z,76.38
2022-11-26T05:28:58.382Z,76.10
2022-11-26T05:29:58.334Z,75.82
2022-11-26T05:30:58.342Z,75.68
2022-11-26T05:31:58.344Z,75.61
2022-11-26T05:32:58.293Z,75.89
2022-11-26T05:33:58.286Z,75.54
2022-11-26T05:35:00.235Z,75.68
2022-11-26T05:35:58.247Z,75.47
2022-11-26T05:36:58.333Z,75.27
2022-11-26T05:37:58.231Z,75.13
2022-11-26T05:38:58.227Z,75.00
2022-11-26T05:39:58.213Z,75.13
2022-11-26T05:40:58.193Z,75.54
2022-11-26T05:41:58.169Z,75.47
2022-11-26T05:42:58.183Z,75.96
2022-11-26T05:43:58.162Z,75.82
2022-11-26T05:44:58.135Z,75.75
2022-11-26T05:46:16.842Z,100.76
2022-11-26T05:47:17.717Z,94.31
2022-11-26T05:48:17.688Z,89.93
2022-11-26T05:49:17.701Z,87.56
2022-11-26T05:50:17.660Z,86.20
2022-11-26T05:51:17.691Z,84.96
2022-11-26T05:52:17.659Z,83.68
2022-11-26T05:53:17.630Z,82.52
2022-11-26T05:54:17.634Z,81.15
2022-11-26T05:55:17.601Z,80.36
2022-11-26T05:56:17.607Z,80.13
2022-11-26T05:57:17.597Z,79.82
2022-11-26T05:58:17.578Z,79.59
2022-11-26T05:59:17.548Z,79.21
2022-11-26T06:00:17.536Z,79.59
2022-11-26T06:01:17.535Z,80.68
2022-11-26T06:02:17.685Z,80.29
2022-11-26T06:03:24.213Z,80.36
2022-11-26T06:04:17.478Z,79.82
2022-11-26T06:05:17.481Z,80.13
2022-11-26T06:06:17.449Z,80.05
2022-11-26T06:07:17.500Z,80.60
2022-11-26T06:08:17.444Z,81.47
2022-11-26T06:09:17.419Z,81.31
2022-11-26T06:10:17.432Z,81.23
2022-11-26T06:11:17.398Z,80.83
2022-11-26T06:12:17.393Z,79.52
2022-11-26T06:13:17.375Z,79.37
2022-11-26T06:14:17.374Z,80.13
2022-11-26T06:15:17.331Z,80.52
2022-11-26T06:16:17.408Z,80.60
2022-11-26T06:17:17.312Z,80.75
2022-11-26T06:18:17.304Z,81.39
2022-11-26T06:19:17.316Z,81.63
2022-11-26T06:20:17.281Z,81.47
2022-11-26T06:21:17.273Z,79.98
2022-11-26T06:22:17.244Z,80.36
2022-11-26T06:23:17.297Z,81.15
2022-11-26T06:24:17.254Z,79.82
2022-11-26T06:25:17.220Z,79.98
2022-11-26T06:26:17.230Z,79.59
2022-11-26T06:27:17.180Z,79.14
2022-11-26T06:28:17.186Z,78.99
2022-11-26T06:29:17.158Z,79.37
2022-11-26T06:30:17.156Z,80.44
2022-11-26T06:31:17.184Z,81.15
2022-11-26T06:32:17.126Z,81.79
2022-11-26T06:33:17.111Z,82.27
2022-11-26T06:34:17.093Z,82.60
2022-11-26T06:35:17.071Z,84.10
2022-11-26T06:36:17.053Z,85.75
2022-11-26T06:37:17.087Z,86.20
2022-11-26T06:38:17.044Z,86.02
2022-11-26T06:39:17.046Z,86.83
2022-11-26T06:40:17.000Z,87.19
2022-11-26T06:41:16.990Z,88.02
2022-11-26T06:42:16.999Z,88.40
2022-11-26T06:43:16.956Z,88.40
2022-11-26T06:44:16.950Z,88.96
2022-11-26T06:45:16.949Z,90.51
2022-11-26T06:46:16.983Z,90.91
2022-11-26T06:47:16.932Z,91.92
2022-11-26T06:48:16.888Z,92.32
2022-11-26T06:49:16.917Z,91.71
2022-11-26T06:50:16.878Z,89.44
2022-11-26T06:51:16.850Z,88.11
2022-11-26T06:52:16.840Z,87.37
2022-11-26T06:53:16.852Z,87.28
2022-11-26T06:54:16.804Z,88.21
2022-11-26T06:55:16.794Z,90.02
2022-11-26T06:56:19.073Z,90.91
2022-11-26T06:57:16.773Z,93.36
2022-11-26T06:58:16.794Z,92.53
2022-11-26T06:59:16.756Z,93.05
2022-11-26T07:00:16.726Z,95.07
2022-11-26T07:01:16.785Z,93.87
2022-11-26T07:02:16.816Z,95.93
2022-11-26T07:03:21.004Z,95.93
2022-11-26T07:04:16.698Z,94.73
2022-11-26T07:05:16.675Z,94.74
2022-11-26T07:06:16.651Z,92.22
2022-11-26T07:07:16.764Z,91.11
2022-11-26T07:08:16.652Z,93.36
2022-11-26T07:09:16.613Z,93.36
2022-11-26T07:10:16.608Z,96.04
2022-11-26T07:11:16.623Z,98.96
2022-11-26T07:12:16.603Z,98.72
2022-11-26T07:13:16.557Z,97.79
2022-11-26T07:14:16.571Z,96.60
2022-11-26T07:15:16.530Z,96.54
2022-11-26T07:16:16.555Z,96.32
2022-11-26T07:17:16.498Z,97.62
2022-11-26T07:18:16.509Z,98.26
2022-11-26T07:19:16.473Z,95.27
2022-11-26T07:20:16.469Z,95.84
2022-11-26T07:21:16.445Z,93.47
2022-11-26T07:22:16.460Z,93.26
2022-11-26T07:23:16.443Z,93.47
2022-11-26T07:24:16.415Z,92.84
2022-11-26T07:25:16.397Z,93.05
2022-11-26T07:26:16.391Z,91.61
2022-11-26T07:27:16.398Z,91.71
2022-11-26T07:28:16.357Z,92.22
2022-11-26T07:29:16.342Z,92.53
2022-11-26T07:30:16.339Z,93.05
2022-11-26T07:31:17.191Z,95.07
2022-11-26T07:32:16.317Z,94.85
2022-11-26T07:33:16.304Z,95.95
2022-11-26T07:34:16.283Z,100.51
2022-11-26T07:35:16.287Z,99.08
2022-11-26T07:36:16.244Z,99.25
2022-11-26T07:37:16.243Z,101.12
2022-11-26T07:38:16.264Z,103.07
2022-11-26T07:39:16.256Z,102.62
2022-11-26T07:40:16.215Z,101.62
2022-11-26T07:41:16.187Z,99.85
2022-11-26T07:42:16.217Z,97.34
2022-11-26T07:43:16.165Z,94.31
2022-11-26T07:44:16.173Z,94.64
2022-11-26T07:45:16.143Z,95.29
2022-11-26T07:46:16.216Z,93.57
2022-11-26T07:47:16.102Z,92.32
2022-11-26T07:48:17.081Z,90.81
2022-11-26T07:49:16.093Z,89.06
2022-11-26T07:50:16.065Z,91.51
2022-11-26T07:51:16.054Z,91.41
2022-11-26T07:52:16.066Z,91.11
2022-11-26T07:53:16.037Z,90.51
2022-11-26T07:54:16.009Z,91.01
2022-11-26T07:55:15.995Z,90.51
2022-11-26T07:56:15.994Z,89.06
2022-11-26T07:57:15.983Z,87.37
2022-11-26T07:58:15.956Z,85.66
2022-11-26T07:59:15.951Z,86.02
2022-11-26T08:00:15.925Z,85.84
2022-11-26T08:01:15.959Z,87.56
2022-11-26T08:02:15.987Z,89.73
2022-11-26T08:03:15.888Z,89.83
2022-11-26T08:04:15.984Z,91.31
2022-11-26T08:05:15.897Z,90.12
2022-11-26T08:06:15.851Z,91.01
2022-11-26T08:07:22.110Z,89.54
2022-11-26T08:08:15.941Z,87.56
2022-11-26T08:09:15.836Z,85.31
2022-11-26T08:10:15.794Z,84.96
2022-11-26T08:11:15.785Z,85.49
2022-11-26T08:12:15.796Z,84.27
2022-11-26T08:13:15.772Z,84.88
2022-11-26T08:14:15.760Z,84.79
2022-11-26T08:15:15.737Z,86.74
2022-11-26T08:16:15.769Z,87.10
2022-11-26T08:17:15.748Z,87.37
2022-11-26T08:18:15.689Z,88.58
2022-11-26T08:19:15.679Z,88.58
2022-11-26T08:20:15.671Z,88.11
2022-11-26T08:21:15.648Z,89.73
2022-11-26T08:22:15.644Z,91.11
2022-11-26T08:23:15.626Z,91.71
2022-11-26T08:24:15.624Z,90.51
2022-11-26T08:25:15.608Z,90.42
2022-11-26T08:26:29.360Z,90.12
2022-11-26T08:27:15.596Z,88.21
2022-11-26T08:28:15.558Z,87.01
2022-11-26T08:29:15.549Z,86.56
2022-11-26T08:30:15.528Z,86.56
2022-11-26T08:31:15.581Z,86.83
2022-11-26T08:32:15.517Z,90.81
2022-11-26T08:33:15.487Z,90.12
2022-11-26T08:34:15.487Z,88.58
2022-11-26T08:35:15.485Z,87.10
2022-11-26T08:36:15.444Z,86.11
2022-11-26T08:37:15.441Z,84.96
2022-11-26T08:38:15.417Z,85.31
2022-11-26T08:39:15.412Z,84.88
2022-11-26T08:40:15.406Z,86.38
2022-11-26T08:41:15.412Z,87.84
2022-11-26T08:42:15.377Z,88.11
2022-11-26T08:43:15.358Z,90.71
2022-11-26T08:44:15.365Z,91.01
2022-11-26T08:45:15.327Z,89.44
2022-11-26T08:46:15.467Z,88.02
2022-11-26T08:47:15.309Z,90.61
2022-11-26T08:48:15.323Z,93.78
2022-11-26T08:49:15.310Z,94.85
2022-11-26T08:50:15.282Z,95.40
2022-11-26T08:51:15.252Z,95.54
2022-11-26T08:52:15.237Z,94.51
2022-11-26T08:53:15.235Z,93.99
2022-11-26T08:54:15.212Z,91.01
2022-11-26T08:55:15.231Z,91.81
2022-11-26T08:56:15.198Z,91.21
2022-11-26T08:57:15.187Z,91.81
2022-11-26T08:58:15.160Z,90.81
2022-11-26T08:59:15.155Z,89.44
2022-11-26T09:00:15.172Z,90.61
2022-11-26T09:01:15.195Z,93.36
2022-11-26T09:02:18.784Z,93.57
2022-11-26T09:03:15.161Z,93.36
2022-11-26T09:04:15.079Z,92.53
2022-11-26T09:05:15.089Z,90.61
2022-11-26T09:06:15.063Z,89.44
2022-11-26T09:07:15.171Z,88.02
2022-11-26T09:08:15.032Z,87.56
2022-11-26T09:09:15.560Z,86.83
2022-11-26T09:10:15.013Z,86.20
2022-11-26T09:11:14.986Z,85.05
2022-11-26T09:12:15.009Z,84.79
2022-11-26T09:13:19.692Z,85.31
2022-11-26T09:14:14.963Z,88.96
2022-11-26T09:15:15.064Z,93.15
2022-11-26T09:16:14.973Z,96.06
2022-11-26T09:17:14.908Z,95.05
2022-11-26T09:18:14.918Z,99.79
2022-11-26T09:19:14.883Z,104.04
2022-11-26T09:20:14.882Z,102.12
2022-11-26T09:21:14.876Z,101.87
2022-11-26T09:22:14.884Z,101.81
2022-11-26T09:23:14.844Z,101.19
2022-11-26T09:24:14.822Z,97.51
2022-11-26T09:25:14.809Z,95.95
2022-11-26T09:26:14.792Z,95.73
2022-11-26T09:27:14.833Z,96.38
2022-11-26T09:28:14.773Z,99.31
2022-11-26T09:29:14.756Z,100.57
2022-11-26T09:30:14.745Z,103.26
2022-11-26T09:31:14.764Z,107.81
2022-11-26T09:32:25.371Z,113.95
2022-11-26T09:33:14.707Z,119.35
2022-11-26T09:34:14.709Z,121.00
2022-11-26T09:35:14.678Z,117.00
2022-11-26T09:36:14.663Z,114.58
2022-11-26T09:37:14.651Z,109.74
2022-11-26T09:38:14.649Z,105.15
2022-11-26T09:39:14.631Z,106.91
2022-11-26T09:40:14.620Z,107.40
2022-11-26T09:41:14.608Z,113.64
2022-11-26T09:42:14.595Z,114.81
2022-11-26T09:43:14.584Z,116.42
2022-11-26T09:44:14.571Z,120.30
2022-11-26T09:45:14.541Z,118.83
2022-11-26T09:46:14.637Z,114.81
2022-11-26T09:47:14.526Z,109.09
2022-11-26T09:48:14.505Z,106.43
2022-11-26T09:49:14.492Z,104.30
2022-11-26T09:50:14.482Z,99.49
2022-11-26T09:51:14.470Z,96.06
2022-11-26T09:52:14.498Z,94.74
2022-11-26T09:53:14.446Z,91.71
2022-11-26T09:54:14.441Z,90.91
2022-11-26T09:55:14.414Z,88.30
2022-11-26T09:56:14.410Z,89.35
2022-11-26T09:57:14.393Z,92.74
2022-11-26T09:58:14.451Z,95.11
2022-11-26T09:59:14.369Z,96.21
2022-11-26T10:00:14.363Z,98.37
2022-11-26T10:01:14.472Z,96.43
2022-11-26T10:02:14.461Z,96.49
2022-11-26T10:03:14.348Z,102.50
2022-11-26T10:04:14.316Z,107.74
2022-11-26T10:05:18.470Z,110.98
2022-11-26T10:06:14.278Z,110.46
2022-11-26T10:07:14.330Z,114.42
2022-11-26T10:08:14.246Z,119.86
2022-11-26T10:09:14.245Z,128.38
2022-11-26T10:10:14.244Z,132.89
2022-11-26T10:11:14.240Z,135.94
2022-11-26T10:12:24.980Z,138.89
2022-11-26T10:13:21.285Z,141.37
2022-11-26T10:14:14.189Z,142.58
2022-11-26T10:15:14.161Z,139.82
2022-11-26T10:16:14.200Z,139.94
2022-11-26T10:17:14.168Z,133.53
2022-11-26T10:18:14.157Z,134.18
2022-11-26T10:19:14.104Z,134.40
2022-11-26T10:20:14.115Z,138.89
2022-11-26T10:21:14.079Z,135.60
2022-11-26T10:22:14.103Z,136.83
2022-11-26T10:23:14.056Z,137.97
2022-11-26T10:24:14.052Z,133.86
2022-11-26T10:25:14.026Z,135.38
2022-11-26T10:26:14.024Z,131.32
2022-11-26T10:27:14.006Z,137.40
2022-11-26T10:28:14.001Z,136.83
2022-11-26T10:29:13.979Z,134.62
2022-11-26T10:30:13.964Z,131.63
2022-11-26T10:31:13.995Z,123.61
2022-11-26T10:32:13.940Z,125.47
2022-11-26T10:33:13.919Z,126.04
2022-11-26T10:34:13.915Z,129.08
2022-11-26T10:35:13.902Z,135.27
2022-11-26T10:36:13.895Z,138.77
2022-11-26T10:37:13.869Z,138.89
2022-11-26T10:38:13.861Z,147.25
2022-11-26T10:39:13.849Z,153.79
2022-11-26T10:40:13.833Z,154.36
2022-11-26T10:41:13.840Z,151.00
2022-11-26T10:42:13.831Z,150.32
2022-11-26T10:43:13.823Z,141.85
2022-11-26T10:44:13.784Z,139.59
2022-11-26T10:45:13.768Z,141.85
2022-11-26T10:46:13.823Z,140.89
2022-11-26T10:47:13.754Z,136.72
2022-11-26T10:48:13.764Z,138.89
2022-11-26T10:49:13.719Z,140.18
2022-11-26T10:50:39.458Z,138.20
2022-11-26T10:51:13.703Z,125.47
2022-11-26T10:52:13.715Z,120.21
2022-11-26T10:53:13.816Z,123.79
2022-11-26T10:54:13.670Z,128.68
2022-11-26T10:55:13.638Z,126.81
2022-11-26T10:56:13.643Z,114.10
2022-11-26T10:57:13.609Z,111.13
2022-11-26T10:58:13.600Z,114.89
2022-11-26T10:59:13.602Z,119.86
2022-11-26T11:00:13.588Z,120.21
2022-11-26T11:01:13.629Z,115.85
2022-11-26T11:02:13.600Z,116.10
2022-11-26T11:03:13.536Z,112.94
2022-11-26T11:04:13.552Z,109.66
2022-11-26T11:05:13.540Z,113.02
2022-11-26T11:06:13.514Z,116.01
2022-11-26T11:07:13.555Z,121.88
2022-11-26T11:08:13.483Z,122.88
2022-11-26T11:09:13.465Z,121.44
2022-11-26T11:10:13.475Z,120.82
2022-11-26T11:11:13.430Z,125.47
2022-11-26T11:12:13.433Z,131.01
2022-11-26T11:13:13.432Z,132.47
2022-11-26T11:14:13.402Z,133.75
2022-11-26T11:15:13.379Z,135.60
2022-11-26T11:16:13.403Z,134.94
2022-11-26T11:17:13.356Z,135.94
2022-11-26T11:18:13.376Z,135.71
2022-11-26T11:19:13.329Z,136.61
2022-11-26T11:20:13.325Z,133.96
2022-11-26T11:21:13.305Z,131.94
2022-11-26T11:22:13.292Z,131.21
2022-11-26T11:23:13.289Z,131.21
2022-11-26T11:24:13.268Z,130.60
2022-11-26T11:25:13.253Z,128.58
2022-11-26T11:26:13.245Z,122.06
2022-11-26T11:27:13.283Z,121.17
2022-11-26T11:28:13.230Z,123.15
2022-11-26T11:29:13.200Z,127.00
2022-11-26T11:30:13.196Z,129.38
2022-11-26T11:31:13.214Z,130.09
2022-11-26T11:32:13.169Z,129.48
2022-11-26T11:33:13.174Z,125.95
2022-11-26T11:34:13.157Z,125.66
2022-11-26T11:35:13.147Z,124.35
2022-11-26T11:36:13.132Z,122.33
2022-11-26T11:37:14.794Z,122.33
2022-11-26T11:38:13.089Z,121.08
2022-11-26T11:39:13.098Z,121.00
2022-11-26T11:40:17.036Z,120.47
2022-11-26T11:41:13.052Z,114.58
2022-11-26T11:42:13.036Z,107.54
2022-11-26T11:43:13.020Z,106.43
2022-11-26T11:44:13.050Z,111.20
2022-11-26T11:45:13.030Z,114.97
2022-11-26T11:46:13.001Z,120.21
2022-11-26T11:47:12.981Z,123.33
2022-11-26T11:48:13.050Z,124.81
2022-11-26T11:49:12.942Z,127.00
2022-11-26T11:50:12.959Z,127.59
2022-11-26T11:51:12.920Z,131.53
2022-11-26T11:52:12.909Z,128.98
2022-11-26T11:53:12.901Z,127.30
2022-11-26T11:54:13.400Z,123.79
2022-11-26T11:55:12.879Z,123.33
2022-11-26T11:56:12.871Z,127.39
2022-11-26T11:57:12.848Z,129.08
2022-11-26T11:58:12.836Z,127.10
2022-11-26T11:59:12.819Z,125.09
2022-11-26T12:00:12.813Z,119.00
2022-11-26T12:01:12.814Z,114.65
2022-11-26T12:02:12.829Z,116.26
2022-11-26T12:03:12.766Z,118.41
2022-11-26T12:04:17.998Z,118.33
2022-11-26T12:05:12.869Z,113.95
2022-11-26T12:06:12.734Z,114.65
2022-11-26T12:07:12.794Z,113.10
2022-11-26T12:08:12.715Z,116.67
2022-11-26T12:09:12.686Z,121.17
2022-11-26T12:10:12.706Z,119.60
2022-11-26T12:11:12.696Z,119.43
2022-11-26T12:12:12.652Z,119.95
2022-11-26T12:13:12.645Z,122.42
2022-11-26T12:14:12.638Z,125.19
2022-11-26T12:15:12.624Z,126.23
2022-11-26T12:16:12.688Z,127.49
2022-11-26T12:17:12.594Z,128.48
2022-11-26T12:18:12.577Z,130.19
2022-11-26T12:19:12.566Z,125.95
2022-11-26T12:20:12.581Z,123.97
2022-11-26T12:21:12.537Z,129.38
2022-11-26T12:22:12.529Z,133.21
2022-11-26T12:23:14.807Z,137.28
2022-11-26T12:24:12.502Z,142.21
2022-11-26T12:25:12.499Z,139.01
2022-11-26T12:26:12.478Z,144.44
2022-11-26T12:27:12.462Z,151.41
2022-11-26T12:28:12.456Z,153.65
2022-11-26T12:29:12.450Z,159.09
2022-11-26T12:30:12.441Z,156.54
2022-11-26T12:31:12.414Z,158.48
2022-11-26T12:32:12.547Z,161.09
2022-11-26T12:33:12.393Z,158.63
2022-11-26T12:34:12.379Z,151.96
2022-11-26T12:35:12.361Z,150.45
2022-11-26T12:36:12.353Z,148.84
2022-11-26T12:37:12.334Z,147.12
2022-11-26T12:38:12.341Z,147.51
2022-11-26T12:39:12.315Z,147.12
2022-11-26T12:40:12.295Z,149.37
2022-11-26T12:41:12.284Z,150.59
2022-11-26T12:42:12.270Z,154.65
2022-11-26T12:43:12.252Z,156.99
2022-11-26T12:44:12.255Z,155.37
2022-11-26T12:45:16.216Z,157.28
2022-11-26T12:46:12.249Z,165.26